Time;durP1;ratioP1;P1;durP2;ratioP2;P2;SDS_P1;SDS_P2;PMS_P1;PMS_P2;Temp;Humidity;BMP_temperature;BMP_pressure;BME280_temperature;BME280_humidity;BME280_pressure;Samples;Min_cycle;Max_cycle;Signal;HPM_P1;HPM_P2
2021/08/20 00:00:31;;;;;;;41.00;38.00;;;;;;;17.51;100.00;101473.38;1972182;73;31473;-73
2021/08/20 00:05:56;;;;;;;40.73;38.00;;;;;;;17.58;100.00;101475.23;1972200;73;31045;-80
2021/08/20 00:11:20;;;;;;;41.13;38.23;;;;;;;17.38;100.00;101469.47;1972184;73;31469;-79
2021/08/20 00:16:48;;;;;;;40.43;37.63;;;;;;;17.35;100.00;101464.48;1972197;73;31477;-79
2021/08/20 00:22:13;;;;;;;40.30;37.40;;;;;;;17.29;100.00;101473.59;1951655;73;33056;-72
2021/08/20 00:27:36;;;;;;;40.33;37.43;;;;;;;17.29;100.00;101483.42;1972108;73;31590;-72
2021/08/20 00:33:02;;;;;;;40.57;37.60;;;;;;;17.19;100.00;101474.41;1972253;73;31520;-80
2021/08/20 00:38:27;;;;;;;39.87;37.17;;;;;;;17.32;100.00;101480.58;1972142;73;33367;-80
2021/08/20 00:43:52;;;;;;;39.33;36.63;;;;;;;17.15;100.00;101477.02;1971958;73;30934;-72
2021/08/20 00:49:17;;;;;;;39.30;36.50;;;;;;;16.98;100.00;101475.42;1971980;73;31003;-72
2021/08/20 00:54:42;;;;;;;39.33;36.63;;;;;;;17.20;100.00;101469.06;1972192;73;30951;-79
2021/08/20 01:00:10;;;;;;;39.50;36.90;;;;;;;17.17;100.00;101464.05;1971907;73;31020;-72
2021/08/20 01:05:36;;;;;;;39.20;36.50;;;;;;;17.01;100.00;101462.16;1972128;73;31567;-72
2021/08/20 01:11:03;;;;;;;39.23;36.57;;;;;;;16.97;100.00;101468.71;1971962;73;33043;-72
2021/08/20 01:16:30;;;;;;;41.50;38.60;;;;;;;16.74;100.00;101467.20;1972209;73;33403;-72
2021/08/20 01:21:55;;;;;;;41.07;38.27;;;;;;;16.97;100.00;101468.14;1964792;71;31069;-72
2021/08/20 01:27:20;;;;;;;40.97;38.27;;;;;;;16.91;100.00;101466.58;1972204;73;31440;-72
2021/08/20 01:32:44;;;;;;;39.90;37.13;;;;;;;16.96;100.00;101469.84;1971980;73;31026;-72
2021/08/20 01:38:09;;;;;;;40.87;37.90;;;;;;;16.99;100.00;101473.42;1971935;73;31038;-73
2021/08/20 01:43:33;;;;;;;39.90;37.27;;;;;;;16.79;100.00;101469.08;1971925;72;31009;-79
2021/08/20 01:49:00;;;;;;;39.80;37.10;;;;;;;16.78;100.00;101470.22;1972100;73;32946;-79
2021/08/20 01:54:25;;;;;;;39.83;37.13;;;;;;;16.67;100.00;101471.58;1971911;73;32973;-72
2021/08/20 01:59:49;;;;;;;40.23;37.43;;;;;;;16.83;100.00;101470.95;1971996;73;32911;-72
2021/08/20 02:05:14;;;;;;;39.13;36.53;;;;;;;16.81;100.00;101479.44;1971878;73;33092;-72
2021/08/20 02:10:38;;;;;;;40.07;37.37;;;;;;;16.75;100.00;101480.67;1971929;73;32999;-72
2021/08/20 02:16:22;;;;;;;39.03;36.27;;;;;;;16.78;100.00;101482.27;2016115;71;32911;-79
2021/08/20 02:21:47;;;;;;;40.07;37.37;;;;;;;16.77;100.00;101474.19;1957069;73;30958;-79
2021/08/20 02:27:11;;;;;;;39.90;37.30;;;;;;;16.50;100.00;101483.38;1971970;73;30969;-72
2021/08/20 02:32:36;;;;;;;39.60;37.00;;;;;;;16.52;100.00;101488.66;1971953;73;30968;-79
2021/08/20 02:38:01;;;;;;;39.03;36.23;;;;;;;16.37;100.00;101478.01;1971919;73;32962;-79
2021/08/20 02:43:26;;;;;;;40.27;37.57;;;;;;;16.49;100.00;101478.90;1971872;73;32882;-79
2021/08/20 02:48:51;;;;;;;40.23;37.43;;;;;;;16.30;100.00;101482.36;1971917;73;32890;-72
2021/08/20 02:54:16;;;;;;;40.43;37.73;;;;;;;16.13;100.00;101488.52;1971855;73;33019;-72
2021/08/20 02:59:41;;;;;;;39.30;36.70;;;;;;;16.15;100.00;101491.02;1972164;72;33444;-72
2021/08/20 03:05:08;;;;;;;39.67;36.87;;;;;;;16.01;100.00;101497.98;1972213;73;33005;-80
2021/08/20 03:10:33;;;;;;;39.10;36.50;;;;;;;16.09;100.00;101494.48;1972208;73;33024;-71
2021/08/20 03:15:59;;;;;;;39.43;36.83;;;;;;;15.97;100.00;101488.52;1972197;73;32947;-80
2021/08/20 03:21:24;;;;;;;38.60;35.90;;;;;;;15.85;100.00;101482.00;1967377;71;32896;-81
2021/08/20 03:26:48;;;;;;;38.53;35.83;;;;;;;15.67;100.00;101489.02;1971883;73;32963;-72
2021/08/20 03:32:13;;;;;;;39.40;36.70;;;;;;;15.70;100.00;101485.63;1971912;73;32982;-73
2021/08/20 03:37:40;;;;;;;39.03;36.43;;;;;;;15.60;100.00;101483.81;1972132;73;33394;-72
2021/08/20 03:43:05;;;;;;;40.23;37.47;;;;;;;15.79;100.00;101466.97;1971895;73;32980;-72
2021/08/20 03:48:30;;;;;;;38.80;36.20;;;;;;;15.60;100.00;101478.20;1972191;73;33420;-72
2021/08/20 03:53:54;;;;;;;38.57;35.87;;;;;;;15.68;100.00;101478.92;1971916;73;32964;-72
2021/08/20 03:59:19;;;;;;;39.63;36.83;;;;;;;15.63;100.00;101471.16;1972182;73;33467;-72
2021/08/20 04:04:44;;;;;;;39.10;36.50;;;;;;;15.69;100.00;101475.55;1972157;73;33394;-79
2021/08/20 04:10:11;;;;;;;37.90;35.50;;;;;;;15.82;100.00;101480.39;1972144;73;33393;-80
2021/08/20 04:15:37;;;;;;;39.47;36.47;;;;;;;15.55;100.00;101481.65;1971893;73;32972;-72
2021/08/20 04:21:01;;;;;;;38.33;35.63;;;;;;;15.64;100.00;101491.03;1969300;71;33035;-72
2021/08/20 04:26:25;;;;;;;39.60;37.00;;;;;;;15.48;100.00;101494.05;1971854;73;32916;-72
2021/08/20 04:31:49;;;;;;;39.07;36.27;;;;;;;15.44;100.00;101492.98;1971944;73;32897;-71
2021/08/20 04:37:13;;;;;;;39.33;36.63;;;;;;;15.62;100.00;101503.09;1971934;73;32956;-80
2021/08/20 04:42:39;;;;;;;40.97;38.17;;;;;;;15.53;100.00;101506.34;1971977;73;32922;-72
2021/08/20 04:48:05;;;;;;;38.77;36.10;;;;;;;15.79;100.00;101505.63;1972185;73;33363;-72
2021/08/20 04:53:30;;;;;;;38.33;35.73;;;;;;;15.76;100.00;101515.20;1971993;73;32969;-71
2021/08/20 04:58:56;;;;;;;38.23;35.60;;;;;;;15.85;100.00;101523.19;1972190;73;33389;-72
2021/08/20 05:04:20;;;;;;;38.37;35.67;;;;;;;15.92;100.00;101532.88;1971881;73;32952;-80
2021/08/20 05:09:45;;;;;;;37.77;35.27;;;;;;;16.10;100.00;101525.58;1971887;73;33028;-79
2021/08/20 05:15:11;;;;;;;38.93;36.33;;;;;;;16.12;100.00;101530.89;1971916;73;32957;-79
2021/08/20 05:20:36;;;;;;;39.97;37.40;;;;;;;16.12;100.00;101531.73;1971526;71;32885;-79
2021/08/20 05:26:01;;;;;;;40.53;37.87;;;;;;;16.23;100.00;101533.77;1971940;73;32886;-79
2021/08/20 05:31:25;;;;;;;39.17;36.60;;;;;;;16.33;100.00;101537.24;1971900;73;32974;-80
2021/08/20 05:36:50;;;;;;;40.33;37.63;;;;;;;16.35;100.00;101541.95;1972186;73;33547;-72
2021/08/20 05:42:17;;;;;;;38.73;36.27;;;;;;;16.44;100.00;101545.45;1971927;73;32980;-79
2021/08/20 05:47:41;;;;;;;41.20;38.60;;;;;;;16.45;100.00;101545.16;1972133;73;33376;-72
2021/08/20 05:53:06;;;;;;;40.27;37.60;;;;;;;16.58;100.00;101551.97;1971925;73;32900;-72
2021/08/20 05:58:31;;;;;;;39.03;36.63;;;;;;;16.61;100.00;101553.58;1972166;72;32900;-80
2021/08/20 06:03:55;;;;;;;40.10;37.60;;;;;;;16.60;100.00;101550.51;1971923;73;32989;-79
2021/08/20 06:09:21;;;;;;;40.97;38.47;;;;;;;16.64;100.00;101557.20;1972146;73;33025;-72
2021/08/20 06:14:46;;;;;;;39.70;37.10;;;;;;;16.78;100.00;101556.63;1971970;73;32936;-79
2021/08/20 06:20:13;;;;;;;40.07;37.47;;;;;;;16.74;100.00;101558.39;1971968;73;32973;-80
2021/08/20 06:25:38;;;;;;;39.50;36.80;;;;;;;16.90;100.00;101553.91;1971900;73;32908;-72
2021/08/20 06:31:03;;;;;;;39.67;36.87;;;;;;;16.95;100.00;101556.58;1972095;73;33406;-71
2021/08/20 06:36:28;;;;;;;40.60;37.90;;;;;;;16.96;100.00;101559.09;1972126;73;33001;-81
2021/08/20 06:41:53;;;;;;;40.30;37.40;;;;;;;17.13;100.00;101572.51;1972144;73;33502;-81
2021/08/20 06:47:18;;;;;;;40.10;37.17;;;;;;;17.11;100.00;101568.63;1972005;73;33064;-71
2021/08/20 06:52:43;;;;;;;41.13;38.27;;;;;;;17.13;100.00;101564.92;1971932;73;32916;-70
2021/08/20 06:58:07;;;;;;;40.53;37.83;;;;;;;17.14;100.00;101566.59;1971919;73;32994;-71
2021/08/20 07:03:38;;;;;;;40.80;38.10;;;;;;;17.37;100.00;101570.91;1971988;73;32988;-79
2021/08/20 07:09:03;;;;;;;39.97;37.27;;;;;;;17.39;100.00;101578.42;1972133;73;33422;-79
2021/08/20 07:14:27;;;;;;;40.27;37.67;;;;;;;17.44;100.00;101581.13;1971952;73;30949;-72
2021/08/20 07:19:52;;;;;;;39.50;36.80;;;;;;;17.48;100.00;101584.98;1972112;73;30940;-78
2021/08/20 07:25:17;;;;;;;40.23;37.67;;;;;;;17.68;100.00;101585.39;1971957;73;32995;-79
2021/08/20 07:30:42;;;;;;;40.80;38.00;;;;;;;17.83;100.00;101577.20;1971952;73;32949;-81
2021/08/20 07:36:06;;;;;;;40.67;37.90;;;;;;;17.99;100.00;101573.44;1972004;73;31016;-79
2021/08/20 07:41:31;;;;;;;41.23;38.53;;;;;;;18.03;100.00;101580.93;1971890;73;32996;-71
2021/08/20 07:46:55;;;;;;;42.67;39.77;;;;;;;18.28;100.00;101585.66;1972099;73;31021;-78
2021/08/20 07:52:20;;;;;;;39.27;36.57;;;;;;;18.22;100.00;101588.37;1938846;73;31521;-75
2021/08/20 07:57:49;;;;;;;38.20;35.70;;;;;;;18.46;100.00;101590.27;1972020;73;31508;-72
2021/08/20 08:03:16;;;;;;;38.67;36.07;;;;;;;18.53;100.00;101587.29;1971937;73;30944;-72
2021/08/20 08:08:41;;;;;;;39.70;37.10;;;;;;;18.67;100.00;101595.66;1972152;73;31513;-80
2021/08/20 08:14:07;;;;;;;41.03;38.27;;;;;;;18.68;100.00;101604.94;1972086;73;33504;-70
2021/08/20 08:19:32;;;;;;;40.47;37.67;;;;;;;18.82;100.00;101607.11;1972042;73;30958;-77
2021/08/20 08:24:57;;;;;;;39.47;36.67;;;;;;;18.89;100.00;101604.65;1972091;72;30972;-72
2021/08/20 08:30:23;;;;;;;41.90;39.30;;;;;;;18.83;100.00;101607.33;1972140;73;31037;-78
2021/08/20 08:35:47;;;;;;;38.33;35.80;;;;;;;19.06;100.00;101606.98;1971967;73;30941;-75
2021/08/20 08:41:13;;;;;;;39.63;37.13;;;;;;;19.08;100.00;101617.33;1972158;73;31547;-72
2021/08/20 08:46:38;;;;;;;39.00;36.20;;;;;;;19.16;100.00;101618.55;1900487;75;31126;-72
2021/08/20 08:52:04;;;;;;;37.67;34.97;;;;;;;19.29;100.00;101616.20;1972170;73;30968;-79
2021/08/20 08:57:28;;;;;;;38.83;36.40;;;;;;;19.33;100.00;101613.56;1971896;73;30954;-69
2021/08/20 09:02:53;;;;;;;39.00;36.50;;;;;;;19.35;100.00;101616.87;1972242;73;31498;-71
2021/08/20 09:08:21;;;;;;;38.40;35.93;;;;;;;19.28;100.00;101615.11;1971894;73;30944;-80
2021/08/20 09:13:49;;;;;;;39.63;36.77;;;;;;;19.29;100.00;101616.20;1972111;72;33374;-79
2021/08/20 09:19:16;;;;;;;39.00;36.50;;;;;;;19.44;100.00;101627.63;1972114;73;33422;-78
2021/08/20 09:24:45;;;;;;;40.60;37.90;;;;;;;19.48;100.00;101628.06;1972107;73;30966;-70
2021/08/20 09:30:21;;;;;;;39.87;37.20;;;;;;;19.50;100.00;101623.52;1972163;73;31048;-72
2021/08/20 09:35:45;;;;;;;41.37;38.57;;;;;;;19.67;100.00;101621.33;1972161;73;31470;-80
2021/08/20 09:41:14;;;;;;;38.77;36.17;;;;;;;19.68;100.00;101628.63;1972117;73;31458;-79
2021/08/20 09:46:43;;;;;;;38.10;35.70;;;;;;;19.76;100.00;101632.88;1972131;73;31482;-79
2021/08/20 09:52:13;;;;;;;36.67;34.27;;;;;;;19.73;100.00;101628.45;1972122;73;30930;-71
2021/08/20 09:57:40;;;;;;;39.93;37.63;;;;;;;19.77;100.00;101627.47;1971925;73;31021;-79
2021/08/20 10:03:09;;;;;;;37.63;35.13;;;;;;;20.06;100.00;101631.11;1971997;73;31005;-72
2021/08/20 10:08:35;;;;;;;38.77;36.37;;;;;;;20.06;100.00;101631.11;1971998;73;30936;-75
2021/08/20 10:14:02;;;;;;;38.33;36.03;;;;;;;20.06;100.00;101635.91;1972183;73;31005;-73
2021/08/20 10:19:30;;;;;;;40.23;37.93;;;;;;;19.98;100.00;101632.73;1972017;73;31031;-71
2021/08/20 10:24:55;;;;;;;38.40;36.13;;;;;;;20.03;100.00;101640.20;1972164;73;31505;-77
2021/08/20 10:30:20;;;;;;;38.03;35.83;;;;;;;19.82;100.00;101634.37;1972267;73;31489;-73
2021/08/20 10:36:00;;;;;;;39.03;36.83;;;;;;;19.81;100.00;101629.88;1972176;73;31412;-79
2021/08/20 10:41:27;;;;;;;38.80;36.60;;;;;;;19.99;100.00;101634.39;1972044;73;30984;-84
2021/08/20 10:47:25;;;;;;;37.73;35.53;;;;;;;20.03;100.00;101640.78;1977738;72;30822;-76
2021/08/20 10:53:14;;;;;;;37.07;34.77;;;;;;;19.93;100.00;101641.95;1971928;73;30969;-73
2021/08/20 10:58:42;;;;;;;37.43;35.17;;;;;;;19.90;100.00;101645.41;1972026;73;30939;-74
2021/08/20 11:04:16;;;;;;;39.83;36.73;;;;;;;20.13;100.00;101645.53;1971981;73;31006;-78
2021/08/20 11:09:45;;;;;;;38.27;35.87;;;;;;;20.26;100.00;101647.95;1972241;73;33375;-76
2021/08/20 11:15:46;;;;;;;37.57;35.37;;;;;;;20.24;100.00;101651.67;1971960;73;31064;-71
2021/08/20 11:21:13;;;;;;;36.43;34.23;;;;;;;20.59;100.00;101647.72;1971943;73;33416;-81
2021/08/20 11:26:37;;;;;;;38.10;35.90;;;;;;;20.34;100.00;101645.16;1971936;73;30938;-74
2021/08/20 11:32:08;;;;;;;37.17;35.07;;;;;;;20.42;100.00;101647.73;1971925;73;30953;-76
2021/08/20 11:37:55;;;;;;;36.70;34.60;;;;;;;20.79;100.00;101651.25;1971922;73;30945;-74
2021/08/20 11:43:22;;;;;;;35.67;33.67;;;;;;;20.70;100.00;101649.05;1971979;73;30931;-73
2021/08/20 11:48:56;;;;;;;36.70;34.80;;;;;;;20.70;100.00;101653.30;1971890;73;31003;-75
2021/08/20 11:54:24;;;;;;;36.90;34.83;;;;;;;20.82;100.00;101654.84;1972113;73;31421;-73
2021/08/20 11:59:56;;;;;;;36.73;34.73;;;;;;;20.87;100.00;101646.20;1972099;73;33487;-71
2021/08/20 12:05:22;;;;;;;36.70;34.80;;;;;;;20.98;100.00;101644.41;1971973;73;30928;-71
2021/08/20 12:10:54;;;;;;;33.40;31.70;;;;;;;21.13;100.00;101643.34;1972017;73;30956;-73
2021/08/20 12:16:39;;;;;;;33.00;31.30;;;;;;;21.44;100.00;101634.55;1971917;73;30928;-73
2021/08/20 12:22:13;;;;;;;33.20;31.60;;;;;;;21.82;100.00;101623.23;1971883;71;31055;-73
2021/08/20 12:27:42;;;;;;;30.23;28.75;;;;;;;21.83;100.00;101632.51;1971935;73;31072;-73
2021/08/20 12:33:09;;;;;;;32.17;30.52;;;;;;;21.88;100.00;101628.91;1971978;73;31041;-70
2021/08/20 12:38:34;;;;;;;33.40;31.70;;;;;;;21.72;100.00;101636.34;1971950;73;30937;-75
2021/08/20 12:44:01;;;;;;;34.50;32.67;;;;;;;21.82;100.00;101637.37;1972178;73;31443;-73
2021/08/20 12:49:32;;;;;;;31.33;29.65;;;;;;;21.86;100.00;101634.67;1971931;73;31021;-68
2021/08/20 12:54:56;;;;;;;33.90;31.63;;;;;;;21.86;100.00;101628.44;1971969;73;31027;-69
2021/08/20 13:00:21;;;;;;;33.27;31.50;;;;;;;21.83;100.00;101629.68;1972058;73;31000;-76
2021/08/20 13:05:57;;;;;;;33.67;31.45;;;;;;;21.95;100.00;101624.17;1972008;73;31038;-78
2021/08/20 13:11:23;;;;;;;30.52;29.02;;;;;;;21.92;100.00;101630.45;1972184;73;31480;-70
2021/08/20 13:16:53;;;;;;;31.07;29.48;;;;;;;21.92;100.00;101631.32;1972062;73;30948;-74
2021/08/20 13:22:14;;;;;;;33.33;31.73;;;;;;;21.86;100.00;101633.27;1951388;73;31043;-73
2021/08/20 13:27:39;;;;;;;28.98;27.67;;;;;;;21.96;100.00;101635.70;1972037;73;31008;-74
2021/08/20 13:33:05;;;;;;;27.55;26.15;;;;;;;22.12;100.00;101626.87;1972260;73;30939;-73
2021/08/20 13:38:30;;;;;;;29.30;27.95;;;;;;;22.07;100.00;101626.49;1971936;72;30990;-70
2021/08/20 13:43:55;;;;;;;28.60;27.30;;;;;;;22.07;100.00;101632.15;1971958;73;31014;-68
2021/08/20 13:49:19;;;;;;;30.65;28.17;;;;;;;22.12;100.00;101622.02;1972194;73;31024;-68
2021/08/20 13:54:44;;;;;;;33.20;30.25;;;;;;;22.40;100.00;101624.30;1972129;73;31049;-73
2021/08/20 14:00:11;;;;;;;30.70;28.52;;;;;;;22.41;100.00;101633.04;1971930;73;31075;-78
2021/08/20 14:05:37;;;;;;;28.73;27.37;;;;;;;22.33;100.00;101626.87;1972147;73;31445;-72
2021/08/20 14:11:02;;;;;;;30.35;28.85;;;;;;;22.16;100.00;101632.88;1972182;73;31060;-66
2021/08/20 14:16:27;;;;;;;32.20;29.85;;;;;;;22.31;100.00;101631.45;1972079;73;31050;-71
2021/08/20 14:21:52;;;;;;;31.45;29.72;;;;;;;22.35;100.00;101626.75;1971922;72;31123;-72
2021/08/20 14:27:17;;;;;;;29.70;28.10;;;;;;;22.35;100.00;101626.75;1972100;73;31010;-67
2021/08/20 14:32:42;;;;;;;30.72;29.23;;;;;;;22.10;100.00;101624.95;1972237;73;31019;-72
2021/08/20 14:38:07;;;;;;;31.33;29.67;;;;;;;22.19;100.00;101624.31;1971950;73;30953;-72
2021/08/20 14:43:34;;;;;;;32.50;30.80;;;;;;;22.05;100.00;101635.89;1972161;73;31016;-71
2021/08/20 14:48:58;;;;;;;30.75;29.25;;;;;;;21.90;100.00;101628.00;1971944;73;31026;-68
2021/08/20 14:54:24;;;;;;;32.75;30.95;;;;;;;21.83;100.00;101636.75;1971888;73;31010;-78
2021/08/20 14:59:48;;;;;;;37.58;35.20;;;;;;;21.74;100.00;101639.05;1972184;73;31418;-70
2021/08/20 15:05:14;;;;;;;34.10;32.28;;;;;;;21.77;100.00;101638.97;1972221;73;31006;-67
2021/08/20 15:10:39;;;;;;;35.10;33.20;;;;;;;21.55;100.00;101642.91;1972043;73;30958;-72
2021/08/20 15:16:05;;;;;;;34.33;32.42;;;;;;;21.50;100.00;101645.09;1972198;73;31455;-69
2021/08/20 15:21:34;;;;;;;35.60;33.40;;;;;;;21.46;100.00;101646.36;1966897;71;31461;-73
2021/08/20 15:26:59;;;;;;;35.53;33.30;;;;;;;21.52;100.00;101639.95;1971958;73;31063;-73
2021/08/20 15:32:27;;;;;;;38.10;35.90;;;;;;;21.51;100.00;101649.59;1972061;73;30947;-72
2021/08/20 15:37:52;;;;;;;39.42;37.13;;;;;;;21.48;100.00;101651.08;1971997;73;30974;-72
2021/08/20 15:43:18;;;;;;;38.98;36.73;;;;;;;21.46;100.00;101650.60;1971892;73;31052;-76
2021/08/20 15:48:43;;;;;;;37.53;35.43;;;;;;;21.58;100.00;101642.23;1972033;73;30992;-73
2021/08/20 15:54:08;;;;;;;36.58;34.38;;;;;;;21.55;100.00;101644.33;1971924;73;31014;-67
2021/08/20 15:59:32;;;;;;;35.65;33.53;;;;;;;21.53;100.00;101640.16;1972139;73;31462;-68
2021/08/20 16:04:56;;;;;;;35.68;33.58;;;;;;;21.67;100.00;101641.59;1972173;73;31481;-75
2021/08/20 16:10:21;;;;;;;36.83;34.83;;;;;;;21.71;100.00;101639.74;1972225;73;30987;-78
2021/08/20 16:15:46;;;;;;;38.15;35.85;;;;;;;21.63;100.00;101646.86;1971953;73;30949;-70
2021/08/20 16:21:12;;;;;;;38.63;36.33;;;;;;;21.41;100.00;101639.48;1964199;73;31517;-68
2021/08/20 16:26:37;;;;;;;37.73;35.52;;;;;;;21.52;100.00;101647.81;1972182;73;30935;-75
2021/08/20 16:32:02;;;;;;;37.42;35.13;;;;;;;21.50;100.00;101641.69;1971955;73;31013;-68
2021/08/20 16:37:26;;;;;;;37.00;34.85;;;;;;;21.41;100.00;101642.30;1972154;73;31022;-71
2021/08/20 16:42:51;;;;;;;36.45;34.45;;;;;;;21.36;100.00;101641.08;1971999;73;30921;-68
2021/08/20 16:48:16;;;;;;;37.40;35.20;;;;;;;21.29;100.00;101637.95;1972184;72;31469;-68
2021/08/20 16:53:41;;;;;;;38.13;36.03;;;;;;;21.27;100.00;101638.28;1972245;73;31504;-72
2021/08/20 16:59:05;;;;;;;39.90;37.50;;;;;;;21.27;100.00;101643.10;1971960;73;30992;-69
2021/08/20 17:04:30;;;;;;;39.83;37.35;;;;;;;21.14;100.00;101650.63;1972491;72;89647;-75
2021/08/20 17:09:55;;;;;;;39.38;37.28;;;;;;;21.15;100.00;101651.46;1972222;73;31541;-75
2021/08/20 17:15:19;;;;;;;38.98;36.73;;;;;;;21.04;100.00;101666.52;1972220;73;31501;-75
2021/08/20 17:20:45;;;;;;;40.27;37.87;;;;;;;20.99;100.00;101657.37;1972235;73;31571;-75
2021/08/20 17:26:09;;;;;;;39.07;36.67;;;;;;;21.11;100.00;101663.16;1972010;73;31553;-75
2021/08/20 17:31:34;;;;;;;40.28;38.00;;;;;;;21.01;100.00;101667.16;1971959;72;31029;-75
2021/08/20 17:36:59;;;;;;;40.28;37.88;;;;;;;21.02;100.00;101660.36;1972231;73;31523;-75
2021/08/20 17:42:25;;;;;;;40.57;38.27;;;;;;;20.93;100.00;101661.53;1971942;73;31069;-74
2021/08/20 17:47:49;;;;;;;41.33;38.77;;;;;;;20.95;100.00;101666.28;1972309;73;31190;-75
2021/08/20 17:53:18;;;;;;;40.13;37.83;;;;;;;20.94;100.00;101654.15;1972002;73;30957;-75
2021/08/20 17:58:41;;;;;;;40.30;38.00;;;;;;;20.87;100.00;101660.33;1971944;73;31059;-74
2021/08/20 18:04:07;;;;;;;44.07;41.17;;;;;;;20.83;100.00;101664.98;1972050;73;31087;-70
2021/08/20 18:09:35;;;;;;;53.80;49.57;;;;;;;20.84;100.00;101660.97;1972310;72;30982;-72
2021/08/20 18:15:04;;;;;;;52.10;47.90;;;;;;;20.80;100.00;101661.98;1972214;73;31466;-75
2021/08/20 18:20:29;;;;;;;44.20;41.17;;;;;;;20.77;100.00;101661.24;1972066;73;31003;-75
2021/08/20 18:25:55;;;;;;;49.90;45.93;;;;;;;20.77;100.00;101660.66;1972199;73;31571;-73
2021/08/20 18:31:26;;;;;;;47.60;43.93;;;;;;;20.67;100.00;101662.41;1971944;73;30970;-72
2021/08/20 18:36:51;;;;;;;41.93;39.33;;;;;;;20.75;100.00;101666.41;1972050;73;31011;-74
2021/08/20 18:42:16;;;;;;;41.27;38.57;;;;;;;20.56;100.00;101665.91;1972087;72;30973;-75
2021/08/20 18:47:41;;;;;;;41.73;39.23;;;;;;;20.59;100.00;101664.66;1972037;73;30966;-75
2021/08/20 18:53:07;;;;;;;43.37;40.63;;;;;;;20.49;100.00;101661.36;1972090;73;30969;-74
2021/08/20 18:58:32;;;;;;;41.77;39.37;;;;;;;20.49;100.00;101672.65;1971947;73;31027;-71
2021/08/20 19:03:56;;;;;;;42.80;40.17;;;;;;;20.56;100.00;101675.79;1972054;73;31041;-75
2021/08/20 19:09:21;;;;;;;42.00;39.43;;;;;;;20.48;100.00;101680.86;1972137;73;31074;-74
2021/08/20 19:14:46;;;;;;;43.60;40.90;;;;;;;20.40;100.00;101683.36;1972329;73;31541;-74
2021/08/20 19:20:13;;;;;;;44.83;42.03;;;;;;;20.40;100.00;101688.17;1972173;73;31628;-75
2021/08/20 19:25:43;;;;;;;45.30;42.57;;;;;;;20.19;100.00;101688.53;1971904;72;31091;-72
2021/08/20 19:31:08;;;;;;;46.33;43.03;;;;;;;20.22;100.00;101691.52;1972019;73;31012;-73
2021/08/20 19:36:35;;;;;;;43.10;40.50;;;;;;;20.13;100.00;101694.07;1972019;73;30963;-75
2021/08/20 19:42:00;;;;;;;42.90;40.13;;;;;;;20.11;100.00;101698.62;1971948;73;31020;-75
2021/08/20 19:47:25;;;;;;;44.13;41.47;;;;;;;20.15;100.00;101700.23;1972278;73;31071;-71
2021/08/20 19:52:49;;;;;;;45.03;42.23;;;;;;;20.14;100.00;101698.56;1972238;73;31518;-70
2021/08/20 19:58:14;;;;;;;44.20;41.40;;;;;;;19.98;100.00;101705.26;1972107;73;30997;-74
2021/08/20 20:03:39;;;;;;;44.97;42.27;;;;;;;19.97;100.00;101709.23;1972031;73;30973;-75
2021/08/20 20:09:06;;;;;;;44.90;42.07;;;;;;;19.93;100.00;101702.01;1971980;73;31052;-75
2021/08/20 20:14:30;;;;;;;44.67;41.87;;;;;;;19.93;100.00;101711.87;1972164;73;31065;-75
2021/08/20 20:19:55;;;;;;;50.37;47.47;;;;;;;19.90;100.00;101710.27;1972032;72;31079;-74
2021/08/20 20:25:19;;;;;;;51.87;48.87;;;;;;;19.84;100.00;101720.05;1972180;72;33528;-72
2021/08/20 20:30:44;;;;;;;52.97;49.90;;;;;;;19.82;100.00;101716.71;1972303;73;31433;-75
2021/08/20 20:36:09;;;;;;;50.13;47.33;;;;;;;19.84;100.00;101717.23;1971981;73;30971;-73
2021/08/20 20:41:34;;;;;;;51.43;48.43;;;;;;;19.55;100.00;101700.27;1972204;73;33455;-74
2021/08/20 20:46:59;;;;;;;48.77;45.87;;;;;;;19.68;100.00;101721.66;1972055;73;31063;-76
2021/08/20 20:52:23;;;;;;;50.77;47.87;;;;;;;19.65;100.00;101721.70;1972282;73;31138;-74
2021/08/20 20:57:48;;;;;;;50.60;47.77;;;;;;;19.64;100.00;101727.69;1972000;73;31039;-72
2021/08/20 21:03:14;;;;;;;51.70;48.80;;;;;;;19.66;100.00;101719.15;1972319;73;31650;-70
2021/08/20 21:08:41;;;;;;;50.53;47.50;;;;;;;19.62;100.00;101730.83;1972177;73;31484;-75
2021/08/20 21:14:06;;;;;;;50.47;47.50;;;;;;;19.60;100.00;101727.48;1972225;73;31454;-74
2021/08/20 21:19:31;;;;;;;50.70;47.63;;;;;;;19.60;100.00;101730.88;1972185;73;30957;-75
2021/08/20 21:24:55;;;;;;;51.33;48.43;;;;;;;19.55;100.00;101721.41;1972231;73;30958;-72
2021/08/20 21:30:21;;;;;;;53.47;50.30;;;;;;;19.49;100.00;101722.72;1972008;73;31059;-70
2021/08/20 21:35:47;;;;;;;52.43;49.40;;;;;;;19.51;100.00;101724.63;1972040;73;31028;-71
2021/08/20 21:41:12;;;;;;;51.17;48.27;;;;;;;19.49;100.00;101721.31;1972006;73;30958;-72
2021/08/20 21:46:37;;;;;;;49.07;46.07;;;;;;;19.41;100.00;101715.03;1972211;73;31451;-75
2021/08/20 21:52:21;;;;;;;49.90;47.00;;;;;;;19.46;100.00;101723.38;2016174;71;30969;-75
2021/08/20 21:57:47;;;;;;;52.13;49.03;;;;;;;19.40;100.00;101721.81;1972228;73;31497;-75
2021/08/20 22:03:15;;;;;;;51.53;48.53;;;;;;;19.41;100.00;101720.67;1972199;73;30952;-73
2021/08/20 22:08:40;;;;;;;47.90;45.00;;;;;;;19.43;100.00;101725.98;1972202;73;30963;-75
2021/08/20 22:14:08;;;;;;;49.47;46.47;;;;;;;19.36;100.00;101729.83;1972026;73;31126;-72
2021/08/20 22:19:32;;;;;;;50.23;47.33;;;;;;;19.27;100.00;101726.13;1972033;73;30972;-75
2021/08/20 22:24:57;;;;;;;49.17;46.17;;;;;;;19.34;100.00;101727.92;1972142;73;33483;-75
2021/08/20 22:30:25;;;;;;;46.13;43.30;;;;;;;19.25;100.00;101725.63;1972079;73;31023;-70
2021/08/20 22:35:49;;;;;;;47.83;44.93;;;;;;;19.27;100.00;101731.19;1972253;73;31063;-75
2021/08/20 22:41:14;;;;;;;46.87;43.97;;;;;;;19.33;100.00;101731.89;1954889;73;31039;-75
2021/08/20 22:46:40;;;;;;;48.47;45.47;;;;;;;19.23;100.00;101731.58;1972179;73;31491;-76
2021/08/20 22:52:05;;;;;;;48.60;45.57;;;;;;;19.23;100.00;101728.76;1972190;73;31449;-75
2021/08/20 22:57:30;;;;;;;48.73;45.57;;;;;;;19.25;100.00;101725.06;1972021;73;30975;-74
2021/08/20 23:02:55;;;;;;;46.53;43.60;;;;;;;19.18;100.00;101723.26;1972000;73;31065;-75
2021/08/20 23:08:20;;;;;;;48.63;45.53;;;;;;;19.22;100.00;101724.27;1972020;73;31643;-75
2021/08/20 23:13:45;;;;;;;46.33;43.33;;;;;;;19.18;100.00;101719.61;1972172;73;30960;-74
2021/08/20 23:19:10;;;;;;;49.67;46.47;;;;;;;19.06;100.00;101715.41;1972199;73;30960;-71
2021/08/20 23:24:37;;;;;;;48.30;45.33;;;;;;;19.08;100.00;101715.90;1972333;72;31533;-75
2021/08/20 23:30:02;;;;;;;48.20;44.90;;;;;;;19.10;100.00;101719.23;1972207;73;31027;-72
2021/08/20 23:35:27;;;;;;;47.30;44.20;;;;;;;19.09;100.00;101714.75;1971973;73;30962;-74
2021/08/20 23:40:51;;;;;;;47.43;44.53;;;;;;;19.10;100.00;101710.80;1972245;73;33402;-74
2021/08/20 23:46:16;;;;;;;48.27;45.13;;;;;;;19.01;100.00;101709.90;1972228;73;31562;-71
2021/08/20 23:51:42;;;;;;;46.87;43.77;;;;;;;19.06;100.00;101718.22;1971991;73;31046;-73
2021/08/20 23:57:07;;;;;;;48.67;45.73;;;;;;;19.04;100.00;101711.23;1971988;73;30979;-75
